< < Back
Terminal Aerodrome Forecast


Current Version              Previous Versions:   1  2  3  4  5  6  7  8  9  

Terminal Aerodrome Forecast

929
FTUS42 KFFC 271127
TAFMCN
TAF
KMCN 271127Z 2712/2812 27007G15KT P6SM SKC
     FM271400 31012G23KT P6SM FEW050
     FM280000 31007KT P6SM SKC=



Latest METAR

077
SAUS80 KWBC 280000 RRC
MTRMCN
METAR KMCN 272353Z 33007KT 10SM CLR 06/M03 A3033 RMK AO2 SLP271
T00611028 10117 20061 53021


USA.gov is the U.S. government's official web portal to all federal, state and local government web resources and services.